createdAt,value
2017-10-23T00:02:20.153Z,13.60
2017-10-23T00:04:48.522Z,10.98
2017-10-23T00:07:16.064Z,6.78
2017-10-23T00:09:44.696Z,7.35
2017-10-23T00:12:12.217Z,9.30
2017-10-23T00:14:41.700Z,7.70
2017-10-23T00:17:10.237Z,9.02
2017-10-23T00:19:37.768Z,7.85
2017-10-23T00:22:05.926Z,7.82
2017-10-23T00:24:33.529Z,6.07
2017-10-23T00:27:01.069Z,7.20
2017-10-23T00:29:28.562Z,9.32
2017-10-23T00:31:57.239Z,11.50
2017-10-23T00:34:25.769Z,8.50
2017-10-23T00:36:54.681Z,7.25
2017-10-23T00:39:22.224Z,6.53
2017-10-23T00:41:50.509Z,5.25
2017-10-23T00:46:52.046Z,6.53
2017-10-23T00:49:20.368Z,5.82
2017-10-23T00:51:48.777Z,6.22
2017-10-23T00:54:16.336Z,9.05
2017-10-23T00:56:45.969Z,11.48
2017-10-23T00:59:13.886Z,7.93
2017-10-23T01:01:41.552Z,9.85
2017-10-23T01:04:09.100Z,7.75
2017-10-23T01:06:37.384Z,6.47
2017-10-23T01:09:05.275Z,10.63
2017-10-23T01:11:33.060Z,4.07
2017-10-23T01:14:00.557Z,8.93
2017-10-23T01:16:28.813Z,7.22
2017-10-23T01:18:56.355Z,12.10
2017-10-23T01:21:24.413Z,7.12
2017-10-23T01:23:51.938Z,5.12
2017-10-23T01:26:20.256Z,9.77
2017-10-23T01:28:47.903Z,7.00
2017-10-23T01:31:15.419Z,5.57
2017-10-23T01:33:43.706Z,5.05
2017-10-23T01:36:12.253Z,9.13
2017-10-23T01:38:40.715Z,6.57
2017-10-23T01:41:08.797Z,8.50
2017-10-23T01:43:36.861Z,5.53
2017-10-23T01:46:04.579Z,9.40
2017-10-23T01:48:33.716Z,10.68
2017-10-23T01:51:01.262Z,7.93
2017-10-23T01:53:28.790Z,4.97
2017-10-23T01:55:58.223Z,8.20
2017-10-23T01:58:25.748Z,5.00
2017-10-23T02:00:54.712Z,9.40
2017-10-23T02:03:22.248Z,12.45
2017-10-23T02:05:50.274Z,4.60
2017-10-23T02:08:19.261Z,6.47
2017-10-23T02:10:48.160Z,10.63
2017-10-23T02:13:16.441Z,8.52
2017-10-23T02:15:43.952Z,4.43
2017-10-23T02:18:11.853Z,13.18
2017-10-23T02:20:40.144Z,9.70
2017-10-23T02:23:07.662Z,5.82
2017-10-23T02:25:36.120Z,8.00
2017-10-23T02:28:04.668Z,7.28
2017-10-23T02:30:32.236Z,9.90
2017-10-23T02:32:59.752Z,7.47
2017-10-23T02:35:27.268Z,6.05
2017-10-23T02:37:54.781Z,6.00
2017-10-23T02:40:23.514Z,5.35
2017-10-23T02:42:51.836Z,9.52
2017-10-23T02:45:20.425Z,6.37
2017-10-23T02:47:49.957Z,5.25
2017-10-23T02:50:17.543Z,4.57
2017-10-23T02:52:46.057Z,8.05
2017-10-23T02:55:13.789Z,7.65
2017-10-23T02:57:41.315Z,11.93
2017-10-23T03:00:09.183Z,9.93
2017-10-23T03:02:36.745Z,7.20
2017-10-23T03:05:05.224Z,3.40
2017-10-23T03:07:33.526Z,8.07
2017-10-23T03:10:01.984Z,7.50
2017-10-23T03:12:30.748Z,7.65
2017-10-23T03:14:59.250Z,6.10
2017-10-23T03:17:26.848Z,6.70
2017-10-23T03:19:54.372Z,7.60
2017-10-23T03:22:21.921Z,4.35
2017-10-23T03:24:50.209Z,8.18
2017-10-23T03:27:17.733Z,5.50
2017-10-23T03:29:45.271Z,6.40
2017-10-23T03:32:13.430Z,6.10
2017-10-23T03:34:41.034Z,7.90
2017-10-23T03:37:08.758Z,8.52
2017-10-23T03:39:36.275Z,13.57
2017-10-23T03:42:03.947Z,12.65
2017-10-23T03:44:31.479Z,5.30
2017-10-23T03:46:58.976Z,7.07
2017-10-23T03:49:26.477Z,5.85
2017-10-23T03:51:53.993Z,8.25
2017-10-23T03:54:22.571Z,4.95
2017-10-23T03:56:50.105Z,5.28
2017-10-23T03:59:18.385Z,10.27
2017-10-23T04:01:48.271Z,4.37
2017-10-23T04:04:16.685Z,3.70
2017-10-23T04:06:44.983Z,6.28
2017-10-23T04:09:12.504Z,10.98
2017-10-23T04:11:40.773Z,6.20
2017-10-23T04:14:08.897Z,6.90
2017-10-23T04:16:37.081Z,8.27
2017-10-23T04:19:05.232Z,6.28
2017-10-23T04:21:32.757Z,5.97
2017-10-23T04:24:00.267Z,11.43
2017-10-23T04:26:27.777Z,15.40
2017-10-23T04:28:56.014Z,7.32
2017-10-23T04:31:24.801Z,6.87
2017-10-23T04:33:52.411Z,5.78
2017-10-23T04:36:20.747Z,9.48
2017-10-23T04:38:48.892Z,13.05
2017-10-23T04:41:17.276Z,10.35
2017-10-23T04:43:46.681Z,10.98
2017-10-23T04:46:15.603Z,10.43
2017-10-23T04:48:44.054Z,10.60
2017-10-23T04:51:12.766Z,10.48
2017-10-23T04:53:41.187Z,7.07
2017-10-23T04:56:09.461Z,6.60
2017-10-23T04:58:38.183Z,13.68
2017-10-23T05:01:05.987Z,5.40
2017-10-23T05:03:33.520Z,8.82
2017-10-23T05:06:01.076Z,8.45
2017-10-23T05:08:28.593Z,9.35
2017-10-23T05:10:56.633Z,6.18
2017-10-23T05:13:24.168Z,10.23
2017-10-23T05:15:52.120Z,7.05
2017-10-23T05:18:20.409Z,7.35
2017-10-23T05:20:48.373Z,7.10
2017-10-23T05:23:17.257Z,10.05
2017-10-23T05:25:45.687Z,6.07
2017-10-23T05:28:14.030Z,8.45
2017-10-23T05:30:41.619Z,8.25
2017-10-23T05:33:10.602Z,15.77
2017-10-23T05:35:39.055Z,9.50
2017-10-23T05:38:06.694Z,11.90
2017-10-23T05:40:34.213Z,5.53
2017-10-23T05:43:01.747Z,14.38
2017-10-23T05:45:29.263Z,13.80
2017-10-23T05:47:57.854Z,9.32
2017-10-23T05:50:25.406Z,6.62
2017-10-23T05:52:53.685Z,13.65
2017-10-23T05:55:21.219Z,9.65
2017-10-23T05:57:49.663Z,9.90
2017-10-23T06:00:17.320Z,10.73
2017-10-23T06:02:44.868Z,14.57
2017-10-23T06:05:12.581Z,9.90
2017-10-23T06:07:40.508Z,8.90
2017-10-23T06:10:08.135Z,5.78
2017-10-23T06:12:35.677Z,10.52
2017-10-23T06:15:04.063Z,8.57
2017-10-23T06:17:31.693Z,10.80
2017-10-23T06:19:59.427Z,9.50
2017-10-23T06:22:27.208Z,9.18
2017-10-23T06:24:54.744Z,14.70
2017-10-23T06:27:22.298Z,10.32
2017-10-23T06:29:49.833Z,7.05
2017-10-23T06:32:18.139Z,6.03
2017-10-23T06:34:45.689Z,8.75
2017-10-23T06:37:13.244Z,11.50
2017-10-23T06:39:40.775Z,10.55
2017-10-23T06:42:10.704Z,14.07
2017-10-23T06:44:38.476Z,8.23
2017-10-23T06:47:06.007Z,12.35
2017-10-23T06:49:33.525Z,7.57
2017-10-23T06:52:01.020Z,10.88
2017-10-23T06:54:28.567Z,11.93
2017-10-23T06:56:56.065Z,8.48
2017-10-23T06:59:24.351Z,14.48
2017-10-23T07:01:51.874Z,14.60
2017-10-23T07:04:19.402Z,13.35
2017-10-23T07:06:46.896Z,9.02
2017-10-23T07:09:14.418Z,9.25
2017-10-23T07:11:41.925Z,10.25
2017-10-23T07:14:10.363Z,17.30
2017-10-23T07:16:37.917Z,11.75
2017-10-23T07:19:05.475Z,8.10
2017-10-23T07:21:33.008Z,7.90
2017-10-23T07:24:00.561Z,14.60
2017-10-23T07:26:28.105Z,9.68
2017-10-23T07:28:56.423Z,11.12
2017-10-23T07:31:23.925Z,7.93
2017-10-23T07:33:51.433Z,17.25
2017-10-23T07:36:18.987Z,10.77
2017-10-23T07:38:46.532Z,13.32
2017-10-23T07:41:14.324Z,10.07
2017-10-23T07:43:41.829Z,8.98
2017-10-23T07:46:09.386Z,14.38
2017-10-23T07:48:37.680Z,9.88
2017-10-23T07:51:05.991Z,9.70
2017-10-23T07:53:33.517Z,11.27
2017-10-23T07:56:03.009Z,10.43
2017-10-23T07:58:31.353Z,21.77
2017-10-23T08:00:58.910Z,7.80
2017-10-23T08:03:26.419Z,14.48
2017-10-23T08:05:55.755Z,11.43
2017-10-23T08:08:23.300Z,8.70
2017-10-23T08:10:50.797Z,9.10
2017-10-23T08:13:18.395Z,10.88
2017-10-23T08:15:46.711Z,6.50
2017-10-23T08:18:14.234Z,10.48
2017-10-23T08:20:42.958Z,16.42
2017-10-23T08:23:11.340Z,11.90
2017-10-23T08:25:38.880Z,15.80
2017-10-23T08:28:06.425Z,7.82
2017-10-23T08:30:34.938Z,5.67
2017-10-23T08:33:03.287Z,10.03
2017-10-23T08:35:30.816Z,11.00
2017-10-23T08:37:59.134Z,9.60
2017-10-23T08:40:26.641Z,10.47
2017-10-23T08:42:54.171Z,13.33
2017-10-23T08:45:21.710Z,13.23
2017-10-23T08:47:49.775Z,10.40
2017-10-23T08:50:17.295Z,8.50
2017-10-23T08:52:44.849Z,15.90
2017-10-23T08:55:12.503Z,11.63
2017-10-23T08:57:41.537Z,12.40
2017-10-23T09:00:09.845Z,9.33
2017-10-23T09:02:37.359Z,12.93
2017-10-23T09:05:05.076Z,7.93
2017-10-23T09:07:32.612Z,6.03
2017-10-23T09:10:00.120Z,10.53
2017-10-23T09:12:27.641Z,9.17
2017-10-23T09:14:55.195Z,10.30
2017-10-23T09:17:22.707Z,11.40
2017-10-23T09:19:50.224Z,10.80
2017-10-23T09:22:17.754Z,9.00
2017-10-23T09:24:46.032Z,7.83
2017-10-23T09:27:13.564Z,11.73
2017-10-23T09:29:41.897Z,10.77
2017-10-23T09:32:09.413Z,11.57
2017-10-23T09:34:37.700Z,11.57
2017-10-23T09:37:05.980Z,15.67
2017-10-23T09:39:34.244Z,15.07
2017-10-23T09:42:02.627Z,9.57
2017-10-23T09:44:30.205Z,7.90
2017-10-23T09:46:57.728Z,14.23
2017-10-23T09:49:25.244Z,12.17
2017-10-23T09:51:52.844Z,8.60
2017-10-23T09:54:21.136Z,12.13
2017-10-23T09:56:49.468Z,7.80
2017-10-23T09:59:17.027Z,8.67
2017-10-23T10:01:44.529Z,9.70
2017-10-23T10:04:12.794Z,13.20
2017-10-23T10:06:40.346Z,11.40
2017-10-23T10:09:08.067Z,8.60
2017-10-23T10:11:36.414Z,8.50
2017-10-23T10:14:04.828Z,6.50
2017-10-23T10:16:33.156Z,7.93
2017-10-23T10:19:00.675Z,13.97
2017-10-23T10:21:28.289Z,10.63
2017-10-23T10:23:56.581Z,14.50
2017-10-23T10:26:24.102Z,11.03
2017-10-23T10:28:51.628Z,7.40
2017-10-23T10:31:19.124Z,8.93
2017-10-23T10:33:46.639Z,6.07
2017-10-23T10:36:14.170Z,9.40
2017-10-23T10:38:41.681Z,11.33
2017-10-23T10:41:09.173Z,12.53
2017-10-23T10:43:38.079Z,12.07
2017-10-23T10:46:05.716Z,16.03
2017-10-23T10:48:33.246Z,8.00
2017-10-23T10:51:00.795Z,16.63
2017-10-23T10:53:28.311Z,8.33
2017-10-23T10:55:56.578Z,9.00
2017-10-23T10:58:24.977Z,21.27
2017-10-23T11:00:52.485Z,7.07
2017-10-23T11:03:19.973Z,9.63
2017-10-23T11:05:48.284Z,7.30
2017-10-23T11:08:15.798Z,7.87
2017-10-23T11:10:43.379Z,19.87
2017-10-23T11:13:11.782Z,8.57
2017-10-23T11:15:39.332Z,12.20
2017-10-23T11:18:06.854Z,9.90
2017-10-23T11:20:34.365Z,9.63
2017-10-23T11:23:01.887Z,14.67
2017-10-23T11:25:30.163Z,8.60
2017-10-23T11:27:58.477Z,12.57
2017-10-23T11:30:25.968Z,7.77
2017-10-23T11:32:53.502Z,22.00
2017-10-23T11:35:21.037Z,11.60
2017-10-23T11:37:48.560Z,14.93
2017-10-23T11:40:17.737Z,12.10
2017-10-23T11:42:45.497Z,14.30
2017-10-23T11:45:13.008Z,7.27
2017-10-23T11:47:40.509Z,7.37
2017-10-23T11:50:08.040Z,11.53
2017-10-23T11:52:35.614Z,9.27
2017-10-23T11:55:03.104Z,11.37
2017-10-23T11:57:30.618Z,8.70
2017-10-23T11:59:58.125Z,15.30
2017-10-23T12:02:25.629Z,8.27
2017-10-23T12:04:53.164Z,13.43
2017-10-23T12:07:21.439Z,17.00
2017-10-23T12:09:49.723Z,8.47
2017-10-23T12:12:17.268Z,14.50
2017-10-23T12:14:45.557Z,11.13
2017-10-23T12:17:13.835Z,14.43
2017-10-23T12:19:41.371Z,14.37
2017-10-23T12:22:08.869Z,11.93
2017-10-23T12:24:36.365Z,11.77
2017-10-23T12:27:03.971Z,14.03
2017-10-23T12:29:31.695Z,10.23
2017-10-23T12:32:00.213Z,12.60
2017-10-23T12:34:28.517Z,10.47
2017-10-23T12:36:56.323Z,8.77
2017-10-23T12:39:24.269Z,8.63
2017-10-23T12:41:52.655Z,7.20
2017-10-23T12:44:20.160Z,8.77
2017-10-23T12:46:48.694Z,20.13
2017-10-23T12:49:16.258Z,9.67
2017-10-23T12:51:43.762Z,8.00
2017-10-23T12:54:12.021Z,8.23
2017-10-23T12:56:39.610Z,11.87
2017-10-23T12:59:07.136Z,14.03
2017-10-23T13:01:34.652Z,8.80
2017-10-23T13:04:02.171Z,7.47
2017-10-23T13:06:30.853Z,8.43
2017-10-23T13:08:58.794Z,5.30
2017-10-23T13:11:26.330Z,13.30
2017-10-23T13:13:53.868Z,10.57
2017-10-23T13:16:22.167Z,10.40
2017-10-23T13:18:50.869Z,4.33
2017-10-23T13:21:18.384Z,10.97
2017-10-23T13:23:47.281Z,4.63
2017-10-23T13:26:15.413Z,6.90
2017-10-23T13:28:43.640Z,4.73
2017-10-23T13:31:11.151Z,6.10
2017-10-23T13:33:38.691Z,4.63
2017-10-23T13:36:06.197Z,3.87
2017-10-23T13:38:33.707Z,4.93
2017-10-23T13:41:01.268Z,7.30
2017-10-23T13:43:28.773Z,7.07
2017-10-23T13:45:56.287Z,4.50
2017-10-23T13:48:23.848Z,4.00
2017-10-23T13:50:51.373Z,4.40
2017-10-23T13:53:18.891Z,4.50
2017-10-23T13:55:47.519Z,4.53
2017-10-23T13:58:15.048Z,4.17
2017-10-23T14:00:42.546Z,4.13
2017-10-23T14:03:10.093Z,5.13
2017-10-23T14:05:37.696Z,4.27
2017-10-23T14:08:05.211Z,5.33
2017-10-23T14:10:32.766Z,4.60
2017-10-23T14:13:01.340Z,4.40
2017-10-23T14:15:29.013Z,4.07
2017-10-23T14:17:56.537Z,6.70
2017-10-23T14:20:25.265Z,5.10
2017-10-23T14:22:52.805Z,5.77
2017-10-23T14:25:20.372Z,6.10
2017-10-23T14:27:47.897Z,7.20
2017-10-23T14:30:16.183Z,5.03
2017-10-23T14:32:44.822Z,4.27
2017-10-23T14:35:12.358Z,4.90
2017-10-23T14:37:39.948Z,5.00
2017-10-23T14:40:07.578Z,7.37
2017-10-23T14:42:35.131Z,3.63
2017-10-23T14:45:02.709Z,2.87
2017-10-23T14:47:30.240Z,3.57
2017-10-23T14:49:59.979Z,3.20
2017-10-23T14:52:27.937Z,2.90
2017-10-23T14:54:55.669Z,4.37
2017-10-23T14:57:23.925Z,4.90
2017-10-23T14:59:53.479Z,4.07
2017-10-23T15:02:21.367Z,3.23
2017-10-23T15:04:49.931Z,3.97
2017-10-23T15:07:17.469Z,4.00
2017-10-23T15:09:45.255Z,4.40
2017-10-23T15:12:13.046Z,5.47
2017-10-23T15:14:40.645Z,5.70
2017-10-23T15:17:09.406Z,4.53
2017-10-23T15:19:36.979Z,4.87
2017-10-23T15:22:05.718Z,5.67
2017-10-23T15:24:34.029Z,11.67
2017-10-23T15:27:02.064Z,7.20
2017-10-23T15:29:30.969Z,6.03
2017-10-23T15:31:59.640Z,6.50
2017-10-23T15:34:27.509Z,8.40
2017-10-23T15:36:55.179Z,10.00
2017-10-23T15:39:24.164Z,9.30
2017-10-23T15:41:52.964Z,13.17
2017-10-23T15:44:21.638Z,12.10
2017-10-23T15:46:49.504Z,9.77
2017-10-23T15:49:17.270Z,10.50
2017-10-23T15:51:45.239Z,12.50
2017-10-23T15:54:13.854Z,13.83
2017-10-23T15:56:41.690Z,13.10
2017-10-23T15:59:09.660Z,14.67
2017-10-23T16:01:38.652Z,15.70
2017-10-23T16:04:06.619Z,14.20
2017-10-23T16:06:35.106Z,14.47
2017-10-23T16:09:03.382Z,14.97
2017-10-23T16:11:32.211Z,17.93
2017-10-23T16:14:00.038Z,18.90
2017-10-23T16:16:28.109Z,20.40
2017-10-23T16:18:57.922Z,19.43
2017-10-23T16:21:25.890Z,21.83
2017-10-23T16:23:54.821Z,21.90
2017-10-23T16:26:23.574Z,25.53
2017-10-23T16:28:53.301Z,25.60
2017-10-23T16:31:21.458Z,27.77
2017-10-23T16:33:50.243Z,24.30
2017-10-23T16:36:19.437Z,30.70
2017-10-23T16:38:48.951Z,28.53
2017-10-23T16:41:17.700Z,35.30
2017-10-23T16:43:46.625Z,31.93
2017-10-23T16:46:15.214Z,34.63
2017-10-23T16:48:44.003Z,38.27
2017-10-23T16:51:12.543Z,39.00
2017-10-23T16:53:41.376Z,35.00
2017-10-23T16:56:09.962Z,39.10
2017-10-23T16:58:40.390Z,42.13
2017-10-23T17:01:08.554Z,39.90
2017-10-23T17:03:37.860Z,31.47
2017-10-23T17:06:09.115Z,37.57
2017-10-23T17:08:37.584Z,32.83
2017-10-23T17:11:06.180Z,32.10
2017-10-23T17:13:35.471Z,29.40
2017-10-23T17:16:04.232Z,32.27
2017-10-23T17:18:32.124Z,33.37
2017-10-23T17:21:01.005Z,34.47
2017-10-23T17:23:30.203Z,34.33
2017-10-23T17:25:59.029Z,31.67
2017-10-23T17:28:27.677Z,34.30
2017-10-23T17:30:57.183Z,32.00
2017-10-23T17:33:25.356Z,24.57
2017-10-23T17:35:54.146Z,26.07
2017-10-23T17:38:23.659Z,24.47
2017-10-23T17:40:52.645Z,24.30
2017-10-23T17:43:21.463Z,26.13
2017-10-23T17:45:49.410Z,27.93
2017-10-23T17:48:18.722Z,27.77
2017-10-23T17:50:47.616Z,24.60
2017-10-23T17:53:16.842Z,24.60
2017-10-23T17:55:46.234Z,24.97
2017-10-23T17:58:15.289Z,21.10
2017-10-23T18:00:45.397Z,26.07
2017-10-23T18:03:14.093Z,25.60
2017-10-23T18:05:43.270Z,24.00
2017-10-23T18:08:12.198Z,21.00
2017-10-23T18:10:41.895Z,22.33
2017-10-23T18:13:10.682Z,23.77
2017-10-23T18:15:39.163Z,21.23
2017-10-23T18:18:08.053Z,21.37
2017-10-23T18:20:36.647Z,20.87
2017-10-23T18:23:05.811Z,24.43
2017-10-23T18:25:34.670Z,22.50
2017-10-23T18:28:02.671Z,19.50
2017-10-23T18:30:30.324Z,21.10
2017-10-23T18:32:58.952Z,19.27
2017-10-23T18:35:27.384Z,18.27
2017-10-23T18:37:57.136Z,28.23
2017-10-23T18:40:26.262Z,18.90
2017-10-23T18:42:53.863Z,21.57
2017-10-23T18:45:21.496Z,22.63
2017-10-23T18:47:49.255Z,18.20
2017-10-23T18:50:17.079Z,21.10
2017-10-23T18:52:45.196Z,16.07
2017-10-23T18:55:14.717Z,17.77
2017-10-23T18:57:43.148Z,19.40
2017-10-23T19:00:10.667Z,18.20
2017-10-23T19:02:38.937Z,21.47
2017-10-23T19:05:07.594Z,20.27
2017-10-23T19:07:35.252Z,21.10
2017-10-23T19:10:03.403Z,19.47
2017-10-23T19:12:31.022Z,18.27
2017-10-23T19:14:59.357Z,25.90
2017-10-23T19:17:27.607Z,20.03
2017-10-23T19:19:55.165Z,19.70
2017-10-23T19:22:23.445Z,18.90
2017-10-23T19:24:51.556Z,19.43
2017-10-23T19:27:19.841Z,20.83
2017-10-23T19:29:48.128Z,20.97
2017-10-23T19:32:16.277Z,19.93
2017-10-23T19:34:44.111Z,19.80
2017-10-23T19:37:12.057Z,19.70
2017-10-23T19:39:40.702Z,20.93
2017-10-23T19:42:08.330Z,22.10
2017-10-23T19:44:35.927Z,26.60
2017-10-23T19:47:03.488Z,23.17
2017-10-23T19:49:31.871Z,24.50
2017-10-23T19:52:01.019Z,19.90
2017-10-23T19:54:28.639Z,19.30
2017-10-23T19:56:57.027Z,20.40
2017-10-23T19:59:25.330Z,16.97
2017-10-23T20:01:52.879Z,16.83
2017-10-23T20:04:20.671Z,16.10
2017-10-23T20:06:48.241Z,18.73
2017-10-23T20:09:16.643Z,16.10
2017-10-23T20:11:44.905Z,16.13
2017-10-23T20:14:12.749Z,16.37
2017-10-23T20:16:40.986Z,15.73
2017-10-23T20:19:09.265Z,14.70
2017-10-23T20:21:38.334Z,16.63
2017-10-23T20:24:07.027Z,15.67
2017-10-23T20:26:34.712Z,14.90
2017-10-23T20:29:02.833Z,13.93
2017-10-23T20:31:31.814Z,15.40
2017-10-23T20:33:59.912Z,15.63
2017-10-23T20:36:27.620Z,15.17
2017-10-23T20:38:55.148Z,15.10
2017-10-23T20:41:23.515Z,14.20
2017-10-23T20:43:52.672Z,14.60
2017-10-23T20:46:20.279Z,14.23
2017-10-23T20:48:49.487Z,16.00
2017-10-23T20:51:17.400Z,16.23
2017-10-23T20:53:44.940Z,18.53
2017-10-23T20:56:14.012Z,15.33
2017-10-23T20:58:41.583Z,15.10
2017-10-23T21:01:09.213Z,15.20
2017-10-23T21:03:37.178Z,15.07
2017-10-23T21:06:04.701Z,14.43
2017-10-23T21:08:32.719Z,14.47
2017-10-23T21:11:01.023Z,15.67
2017-10-23T21:13:29.306Z,17.43
2017-10-23T21:15:56.860Z,14.93
2017-10-23T21:18:24.387Z,15.77
2017-10-23T21:20:52.429Z,15.33
2017-10-23T21:23:20.012Z,13.73
2017-10-23T21:25:48.248Z,16.80
2017-10-23T21:31:04.633Z,14.67
2017-10-23T21:33:33.123Z,13.57
2017-10-23T21:36:00.805Z,15.47
2017-10-23T21:38:28.520Z,13.60
2017-10-23T21:40:56.284Z,13.97
2017-10-23T21:43:24.969Z,14.83
2017-10-23T21:45:52.588Z,14.53
2017-10-23T21:48:20.975Z,17.00
2017-10-23T21:50:50.443Z,14.83
2017-10-23T21:53:18.076Z,15.47
2017-10-23T21:55:45.620Z,14.00
2017-10-23T21:58:13.911Z,13.93
2017-10-23T22:00:41.437Z,13.70
2017-10-23T22:03:08.964Z,13.70
2017-10-23T22:05:36.484Z,12.90
2017-10-23T22:08:03.992Z,14.50
2017-10-23T22:10:31.544Z,16.00
2017-10-23T22:13:00.772Z,13.40
2017-10-23T22:15:28.287Z,15.83
2017-10-23T22:17:55.849Z,16.83
2017-10-23T22:20:23.356Z,13.40
2017-10-23T22:22:51.654Z,16.53
2017-10-23T22:25:20.035Z,15.80
2017-10-23T22:27:47.610Z,15.23
2017-10-23T22:30:15.155Z,17.60
2017-10-23T22:32:42.684Z,16.03
2017-10-23T22:35:10.273Z,16.20
2017-10-23T22:37:37.778Z,16.67
2017-10-23T22:40:05.329Z,18.10
2017-10-23T22:42:32.866Z,19.43
2017-10-23T22:45:00.389Z,14.47
2017-10-23T22:47:28.720Z,13.40
2017-10-23T22:49:56.774Z,15.80
2017-10-23T22:52:25.997Z,14.40
2017-10-23T22:54:53.824Z,16.73
2017-10-23T22:57:21.330Z,17.97
2017-10-23T22:59:48.859Z,17.00
2017-10-23T23:02:16.401Z,15.87
2017-10-23T23:04:43.917Z,15.90
2017-10-23T23:07:11.427Z,13.93
2017-10-23T23:09:38.963Z,14.20
2017-10-23T23:12:07.261Z,19.77
2017-10-23T23:14:34.908Z,16.87
2017-10-23T23:17:02.458Z,19.27
2017-10-23T23:19:30.751Z,18.70
2017-10-23T23:21:58.631Z,17.70
2017-10-23T23:24:26.257Z,16.70
2017-10-23T23:26:54.580Z,17.90
2017-10-23T23:29:22.345Z,18.23
2017-10-23T23:31:49.957Z,15.40
2017-10-23T23:34:18.271Z,17.10
2017-10-23T23:36:45.796Z,16.17
2017-10-23T23:39:14.083Z,19.17
2017-10-23T23:41:41.667Z,15.33
2017-10-23T23:44:09.189Z,12.87
2017-10-23T23:46:37.470Z,15.07
2017-10-23T23:49:05.759Z,14.30
2017-10-23T23:51:33.289Z,15.30
2017-10-23T23:54:01.579Z,13.33
2017-10-23T23:56:29.925Z,12.80
2017-10-23T23:58:58.249Z,13.20
